Time;durP1;ratioP1;P1;durP2;ratioP2;P2;SDS_P1;SDS_P2;PMS_P1;PMS_P2;Temp;Humidity;BMP_temperature;BMP_pressure;BME280_temperature;BME280_humidity;BME280_pressure;Samples;Min_cycle;Max_cycle;Signal;HPM_P1;HPM_P2
2023/02/04 00:00:03;;;;;;;38.50;6.95;;;6.60;99.90;;;;;;7368607;19;20019;-71
2023/02/04 00:02:32;;;;;;;39.92;7.68;;;6.60;99.90;;;;;;7371416;19;20521;-69
2023/02/04 00:04:59;;;;;;;39.33;6.65;;;6.60;99.90;;;;;;7373248;19;20041;-71
2023/02/04 00:07:31;;;;;;;41.38;7.18;;;6.60;99.90;;;;;;7369349;19;20018;-68
2023/02/04 00:09:57;;;;;;;38.90;7.35;;;6.60;99.90;;;;;;7373406;19;20841;-68
2023/02/04 00:12:24;;;;;;;39.45;7.40;;;6.60;99.90;;;;;;7372840;19;20070;-70
2023/02/04 00:14:50;;;;;;;31.08;6.28;;;6.60;99.90;;;;;;7372131;19;20044;-71
2023/02/04 00:17:19;;;;;;;40.92;7.30;;;6.60;99.90;;;;;;7370810;19;20019;-71
2023/02/04 00:19:46;;;;;;;37.60;8.07;;;6.60;99.90;;;;;;7371456;19;20037;-71
2023/02/04 00:22:12;;;;;;;38.17;6.70;;;6.60;99.90;;;;;;7375971;19;20014;-71
2023/02/04 00:24:39;;;;;;;49.13;7.22;;;6.60;99.90;;;;;;7371491;19;20839;-71
2023/02/04 00:27:06;;;;;;;36.10;7.22;;;6.60;99.90;;;;;;7371509;19;20301;-71
2023/02/04 00:29:33;;;;;;;43.45;7.30;;;6.60;99.90;;;;;;7368813;19;20086;-71
2023/02/04 00:31:59;;;;;;;35.22;7.05;;;6.60;99.90;;;;;;7372186;19;20022;-72
2023/02/04 00:34:26;;;;;;;37.58;8.35;;;6.70;99.90;;;;;;7370601;19;20014;-71
2023/02/04 00:36:53;;;;;;;44.13;7.82;;;6.70;99.90;;;;;;7375377;19;20026;-70
2023/02/04 00:39:19;;;;;;;44.38;7.35;;;6.70;99.90;;;;;;7378965;19;20022;-71
2023/02/04 00:41:45;;;;;;;39.78;7.72;;;6.70;99.90;;;;;;7382255;19;20019;-69
2023/02/04 00:44:13;;;;;;;38.50;8.13;;;6.70;99.90;;;;;;7378930;19;20654;-68
2023/02/04 00:46:41;;;;;;;44.53;8.23;;;6.70;99.90;;;;;;7382252;19;20025;-70
2023/02/04 00:49:11;;;;;;;35.38;7.45;;;6.70;99.90;;;;;;7380915;19;20129;-69
2023/02/04 00:51:43;;;;;;;48.83;7.78;;;6.70;99.90;;;;;;7377678;19;20022;-69
2023/02/04 00:54:14;;;;;;;35.80;7.70;;;6.70;99.90;;;;;;7383119;19;21005;-68
2023/02/04 00:56:41;;;;;;;43.75;8.50;;;6.70;99.90;;;;;;7384600;19;20014;-68
2023/02/04 00:59:08;;;;;;;42.25;7.15;;;6.60;99.90;;;;;;7380879;19;20162;-70
2023/02/04 01:01:34;;;;;;;42.97;7.80;;;6.60;99.90;;;;;;7381897;19;20030;-68
2023/02/04 01:04:00;;;;;;;36.55;6.72;;;6.60;99.90;;;;;;7379799;19;20553;-71
2023/02/04 01:06:29;;;;;;;37.65;7.72;;;6.60;99.90;;;;;;7381654;19;20010;-71
2023/02/04 01:08:56;;;;;;;48.20;9.20;;;6.60;99.90;;;;;;7379916;19;20033;-70
2023/02/04 01:11:23;;;;;;;46.83;7.55;;;6.70;99.90;;;;;;7379424;19;20410;-70
2023/02/04 01:13:49;;;;;;;50.10;7.53;;;6.60;99.90;;;;;;7377298;19;20045;-68
2023/02/04 01:16:15;;;;;;;46.88;7.72;;;6.60;99.90;;;;;;7383027;19;20023;-71
2023/02/04 01:18:44;;;;;;;52.00;8.88;;;6.60;99.90;;;;;;7380777;19;20022;-70
2023/02/04 01:21:10;;;;;;;38.15;7.65;;;6.60;99.90;;;;;;7379796;19;20026;-68
2023/02/04 01:23:37;;;;;;;37.63;7.97;;;6.60;99.90;;;;;;7380162;19;20482;-70
2023/02/04 01:26:04;;;;;;;37.13;7.38;;;6.60;99.90;;;;;;7379580;19;20044;-68
2023/02/04 01:28:31;;;;;;;42.45;6.82;;;6.60;99.90;;;;;;7380282;19;20066;-68
2023/02/04 01:30:59;;;;;;;45.35;8.35;;;6.60;99.90;;;;;;7377542;19;20055;-69
2023/02/04 01:33:26;;;;;;;45.35;9.15;;;6.60;99.90;;;;;;7381718;19;20029;-68
2023/02/04 01:35:52;;;;;;;44.33;8.45;;;6.60;99.90;;;;;;7380121;19;20077;-71
2023/02/04 01:38:19;;;;;;;40.80;8.30;;;6.60;99.90;;;;;;7380144;19;20014;-70
2023/02/04 01:40:46;;;;;;;42.53;8.43;;;6.60;99.90;;;;;;7377662;19;20086;-68
2023/02/04 01:43:12;;;;;;;42.17;7.72;;;6.60;99.90;;;;;;7377905;19;20021;-71
2023/02/04 01:45:39;;;;;;;38.45;6.40;;;6.60;99.90;;;;;;7377750;19;20020;-71
2023/02/04 01:48:06;;;;;;;46.38;9.88;;;6.60;99.90;;;;;;7378272;19;20018;-69
2023/02/04 01:50:33;;;;;;;34.63;6.80;;;6.60;99.90;;;;;;7377239;19;20043;-68
2023/02/04 01:53:01;;;;;;;39.00;6.38;;;6.60;99.90;;;;;;7377257;19;20022;-68
2023/02/04 01:55:31;;;;;;;52.13;8.60;;;6.60;99.90;;;;;;7376299;19;20018;-69
2023/02/04 01:57:59;;;;;;;53.58;8.35;;;6.60;99.90;;;;;;7377716;19;20022;-71
2023/02/04 02:00:31;;;;;;;43.78;7.93;;;6.60;99.90;;;;;;7374207;19;20751;-71
2023/02/04 02:02:58;;;;;;;37.13;7.28;;;6.60;99.90;;;;;;7376832;19;20473;-71
2023/02/04 02:05:31;;;;;;;48.25;7.72;;;6.60;99.90;;;;;;7374333;19;20022;-68
2023/02/04 02:08:02;;;;;;;46.28;8.05;;;6.60;99.90;;;;;;7376002;19;20023;-69
2023/02/04 02:10:30;;;;;;;46.80;8.30;;;6.60;99.90;;;;;;7377511;19;20025;-71
2023/02/04 02:12:57;;;;;;;39.88;8.30;;;6.70;99.90;;;;;;7377895;19;20030;-69
2023/02/04 02:15:27;;;;;;;48.00;7.88;;;6.60;99.90;;;;;;7371920;19;20014;-71
2023/02/04 02:17:54;;;;;;;44.65;8.00;;;6.70;99.90;;;;;;7376134;19;20015;-72
2023/02/04 02:20:23;;;;;;;51.40;8.70;;;6.70;99.90;;;;;;7373887;19;20090;-69
2023/02/04 02:23:25;;;;;;;40.30;6.78;;;6.70;99.90;;;;;;7376894;19;20114;-71
2023/02/04 02:25:52;;;;;;;38.87;7.43;;;6.70;99.90;;;;;;7375276;19;20022;-71
2023/02/04 02:28:21;;;;;;;49.47;8.10;;;6.70;99.90;;;;;;7374783;19;20045;-71
2023/02/04 02:30:49;;;;;;;36.58;6.53;;;6.70;99.90;;;;;;7375484;19;20018;-71
2023/02/04 02:33:19;;;;;;;46.22;7.50;;;6.70;99.90;;;;;;7375815;19;20018;-69
2023/02/04 02:35:49;;;;;;;35.38;7.22;;;6.80;99.90;;;;;;7373797;19;20750;-71
2023/02/04 02:38:18;;;;;;;39.83;7.17;;;6.80;99.90;;;;;;7376820;19;20018;-68
2023/02/04 02:40:45;;;;;;;34.35;8.13;;;6.80;99.90;;;;;;7376476;19;20477;-68
2023/02/04 02:43:16;;;;;;;39.55;8.05;;;6.80;99.90;;;;;;7375815;19;20036;-68
2023/02/04 02:45:45;;;;;;;44.05;8.00;;;6.80;99.90;;;;;;7375028;19;20615;-68
2023/02/04 02:48:22;;;;;;;41.88;7.20;;;6.80;99.90;;;;;;7374739;19;20054;-71
2023/02/04 02:50:48;;;;;;;41.92;6.70;;;6.80;99.90;;;;;;7372396;19;20247;-71
2023/02/04 02:53:17;;;;;;;40.13;8.60;;;6.80;99.90;;;;;;7367211;19;20021;-69
2023/02/04 02:55:45;;;;;;;44.35;7.68;;;6.70;99.90;;;;;;7372437;19;21367;-68
2023/02/04 02:58:31;;;;;;;50.67;7.70;;;6.80;99.90;;;;;;7375068;19;20591;-71
2023/02/04 03:01:04;;;;;;;48.20;7.40;;;6.70;99.90;;;;;;7369466;19;20488;-68
2023/02/04 03:03:35;;;;;;;55.28;7.95;;;6.70;99.90;;;;;;7372718;19;20022;-69
2023/02/04 03:06:11;;;;;;;43.30;6.93;;;6.70;99.90;;;;;;7373956;19;20018;-71
2023/02/04 03:08:39;;;;;;;43.85;7.88;;;6.60;99.90;;;;;;7373855;19;20014;-71
2023/02/04 03:11:05;;;;;;;41.72;7.85;;;6.70;99.90;;;;;;7370069;19;20022;-71
2023/02/04 03:13:32;;;;;;;53.30;8.27;;;6.70;99.90;;;;;;7372769;19;20603;-72
2023/02/04 03:15:59;;;;;;;50.00;7.35;;;6.60;99.90;;;;;;7373682;19;20025;-70
2023/02/04 03:18:31;;;;;;;41.97;7.85;;;6.60;99.90;;;;;;7374440;19;20019;-68
2023/02/04 03:20:59;;;;;;;46.05;8.82;;;6.60;99.90;;;;;;7374464;19;20029;-70
2023/02/04 03:23:26;;;;;;;52.33;8.18;;;6.60;99.90;;;;;;7374609;19;20580;-69
2023/02/04 03:25:53;;;;;;;52.10;8.70;;;6.60;99.90;;;;;;7369592;19;20023;-71
2023/02/04 03:28:19;;;;;;;39.33;7.07;;;6.60;99.90;;;;;;7370660;19;20513;-71
2023/02/04 03:30:52;;;;;;;48.20;8.20;;;6.60;99.90;;;;;;7374376;19;20023;-71
2023/02/04 03:33:19;;;;;;;46.55;8.75;;;6.60;99.90;;;;;;7373479;19;20018;-70
2023/02/04 03:35:46;;;;;;;40.10;8.23;;;6.60;99.90;;;;;;7372366;19;20022;-69
2023/02/04 03:38:17;;;;;;;46.05;8.27;;;6.70;99.90;;;;;;7375184;19;20007;-69
2023/02/04 03:40:46;;;;;;;40.40;7.72;;;6.60;99.90;;;;;;7374312;19;20026;-69
2023/02/04 03:43:12;;;;;;;35.47;7.28;;;6.60;99.90;;;;;;7376572;19;20023;-69
2023/02/04 03:45:41;;;;;;;47.55;7.88;;;6.60;99.90;;;;;;7374989;19;20023;-69
2023/02/04 03:48:07;;;;;;;57.45;8.18;;;6.60;99.90;;;;;;7376611;19;20014;-68
2023/02/04 03:50:34;;;;;;;49.92;7.78;;;6.60;99.90;;;;;;7375341;19;20097;-69
2023/02/04 03:53:01;;;;;;;47.03;7.85;;;6.60;99.90;;;;;;7375502;19;20030;-69
2023/02/04 03:55:27;;;;;;;42.28;8.10;;;6.60;99.90;;;;;;7375180;19;20035;-70
2023/02/04 03:57:54;;;;;;;42.17;7.43;;;6.60;99.90;;;;;;7371676;19;20086;-69
2023/02/04 04:00:21;;;;;;;36.72;7.18;;;6.60;99.90;;;;;;7374928;19;20021;-69
2023/02/04 04:02:48;;;;;;;46.67;9.40;;;6.60;99.90;;;;;;7374028;19;20041;-71
2023/02/04 04:05:14;;;;;;;44.00;7.95;;;6.60;99.90;;;;;;7373953;19;20740;-71
2023/02/04 04:07:40;;;;;;;38.15;7.03;;;6.60;99.90;;;;;;7377316;19;20103;-69
2023/02/04 04:10:13;;;;;;;47.42;8.63;;;6.60;99.90;;;;;;7374557;19;20014;-71
2023/02/04 04:12:39;;;;;;;41.40;7.75;;;6.60;99.90;;;;;;7379724;19;20026;-70
2023/02/04 04:15:09;;;;;;;47.03;7.90;;;6.60;99.90;;;;;;7380920;19;20774;-70
2023/02/04 04:17:35;;;;;;;36.80;6.90;;;6.70;99.90;;;;;;7382144;19;20846;-70
2023/02/04 04:20:05;;;;;;;35.35;7.22;;;6.70;99.90;;;;;;7382094;19;20124;-69
2023/02/04 04:22:32;;;;;;;44.42;7.82;;;6.70;99.90;;;;;;7382720;19;20441;-68
2023/02/04 04:25:03;;;;;;;36.95;6.70;;;6.70;99.90;;;;;;7382819;19;20022;-70
2023/02/04 04:27:29;;;;;;;48.85;7.63;;;6.60;99.90;;;;;;7381691;19;20026;-70
2023/02/04 04:29:56;;;;;;;48.30;8.65;;;6.60;99.90;;;;;;7379690;19;20018;-68
2023/02/04 04:32:24;;;;;;;37.35;7.20;;;6.60;99.90;;;;;;7381149;19;20027;-70
2023/02/04 04:34:51;;;;;;;45.20;7.68;;;6.60;99.90;;;;;;7380560;19;20492;-70
2023/02/04 04:37:18;;;;;;;46.55;7.10;;;6.60;99.90;;;;;;7378413;19;20867;-68
2023/02/04 04:39:44;;;;;;;36.28;7.63;;;6.60;99.90;;;;;;7380618;19;20022;-69
2023/02/04 04:42:15;;;;;;;45.72;8.20;;;6.60;99.90;;;;;;7379767;19;20015;-68
2023/02/04 04:44:41;;;;;;;42.75;7.22;;;6.60;99.90;;;;;;7380193;19;20014;-71
2023/02/04 04:47:08;;;;;;;45.88;8.27;;;6.60;99.90;;;;;;7379836;19;20025;-68
2023/02/04 04:49:34;;;;;;;47.10;9.43;;;6.60;99.90;;;;;;7381754;19;20028;-68
2023/02/04 04:52:02;;;;;;;45.28;6.72;;;6.60;99.90;;;;;;7380084;19;20014;-71
2023/02/04 04:54:28;;;;;;;34.40;6.75;;;6.60;99.90;;;;;;7383010;19;20018;-70
2023/02/04 04:56:55;;;;;;;41.83;7.20;;;6.50;99.90;;;;;;7382028;19;20021;-68
2023/02/04 04:59:21;;;;;;;43.10;8.27;;;6.50;99.90;;;;;;7381670;19;20568;-69
2023/02/04 05:01:47;;;;;;;43.78;8.00;;;6.50;99.90;;;;;;7378781;19;20021;-71
2023/02/04 05:04:14;;;;;;;43.47;7.90;;;6.50;99.90;;;;;;7379792;19;20019;-71
2023/02/04 05:06:40;;;;;;;42.78;7.15;;;6.50;99.90;;;;;;7376761;19;20020;-69
2023/02/04 05:09:08;;;;;;;48.58;8.10;;;6.50;99.90;;;;;;7378141;19;20774;-68
2023/02/04 05:11:39;;;;;;;47.05;8.38;;;6.50;99.90;;;;;;7381831;19;20121;-68
2023/02/04 05:14:08;;;;;;;36.92;6.68;;;6.50;99.90;;;;;;7379657;19;20022;-71
2023/02/04 05:16:34;;;;;;;47.00;7.88;;;6.50;99.90;;;;;;7380861;19;20453;-68
2023/02/04 05:19:01;;;;;;;42.97;8.57;;;6.50;99.90;;;;;;7378333;19;20015;-70
2023/02/04 05:21:27;;;;;;;43.83;7.22;;;6.50;99.90;;;;;;7379693;19;20015;-68
2023/02/04 05:23:54;;;;;;;41.67;7.72;;;6.50;99.90;;;;;;7379902;19;20022;-68
2023/02/04 05:26:21;;;;;;;48.30;9.05;;;6.50;99.90;;;;;;7377932;19;20378;-70
2023/02/04 05:28:47;;;;;;;52.53;8.80;;;6.50;99.90;;;;;;7378341;19;20487;-70
2023/02/04 05:31:14;;;;;;;55.70;8.48;;;6.40;99.90;;;;;;7369552;19;20074;-71
2023/02/04 05:33:41;;;;;;;47.15;8.48;;;6.40;99.90;;;;;;7375450;19;21244;-68
2023/02/04 05:36:08;;;;;;;47.15;8.25;;;6.40;99.90;;;;;;7375735;19;20018;-70
2023/02/04 05:38:35;;;;;;;43.85;8.15;;;6.40;99.90;;;;;;7376573;19;20762;-71
2023/02/04 05:41:01;;;;;;;51.40;7.68;;;6.40;99.90;;;;;;7373925;19;20019;-68
2023/02/04 05:43:28;;;;;;;41.67;6.68;;;6.40;99.90;;;;;;7376020;19;20034;-68
2023/02/04 05:45:55;;;;;;;43.80;7.22;;;6.40;99.90;;;;;;7379900;19;20026;-70
2023/02/04 05:48:22;;;;;;;48.00;8.43;;;6.40;99.90;;;;;;7373523;19;20946;-71
2023/02/04 05:50:48;;;;;;;47.95;8.75;;;6.40;99.90;;;;;;7376814;19;20420;-71
2023/02/04 05:53:15;;;;;;;44.47;7.43;;;6.30;99.90;;;;;;7376052;19;21521;-70
2023/02/04 05:55:41;;;;;;;44.13;7.57;;;6.30;99.90;;;;;;7375087;19;20051;-71
2023/02/04 05:58:08;;;;;;;44.30;9.02;;;6.30;99.90;;;;;;7374626;19;20015;-71
2023/02/04 06:00:34;;;;;;;43.08;7.47;;;6.30;99.90;;;;;;7373481;19;20074;-70
2023/02/04 06:03:01;;;;;;;49.83;8.82;;;6.30;99.90;;;;;;7373398;19;20385;-71
2023/02/04 06:05:27;;;;;;;40.63;7.53;;;6.30;99.90;;;;;;7373481;19;20044;-70
2023/02/04 06:07:53;;;;;;;45.00;7.72;;;6.30;99.90;;;;;;7375788;19;20018;-70
2023/02/04 06:10:20;;;;;;;51.78;9.07;;;6.20;99.90;;;;;;7375030;19;20033;-68
2023/02/04 06:12:47;;;;;;;41.67;7.75;;;6.20;99.90;;;;;;7377427;19;20018;-69
2023/02/04 06:15:14;;;;;;;43.28;8.00;;;6.20;99.90;;;;;;7378895;19;20705;-69
2023/02/04 06:17:40;;;;;;;38.40;7.45;;;6.20;99.90;;;;;;7376763;19;20628;-68
2023/02/04 06:20:08;;;;;;;41.63;8.45;;;6.20;99.90;;;;;;7374700;19;20511;-68
2023/02/04 06:22:34;;;;;;;40.55;8.57;;;6.20;99.90;;;;;;7373662;19;20026;-69
2023/02/04 06:25:01;;;;;;;50.38;7.57;;;6.20;99.90;;;;;;7373560;19;20035;-68
2023/02/04 06:27:27;;;;;;;43.80;7.65;;;6.20;99.90;;;;;;7373861;19;20045;-68
2023/02/04 06:29:59;;;;;;;40.33;7.57;;;6.10;99.90;;;;;;7376943;19;20022;-71
2023/02/04 06:32:26;;;;;;;40.10;7.43;;;6.10;99.90;;;;;;7379214;19;20035;-67
2023/02/04 06:34:53;;;;;;;36.03;6.43;;;6.10;99.90;;;;;;7380848;19;20026;-68
2023/02/04 06:37:20;;;;;;;42.28;7.10;;;6.10;99.90;;;;;;7377178;19;20698;-68
2023/02/04 06:39:46;;;;;;;41.95;7.20;;;6.10;99.90;;;;;;7375052;19;20663;-69
2023/02/04 06:42:13;;;;;;;53.03;8.13;;;6.10;99.90;;;;;;7378611;19;20014;-68
2023/02/04 06:44:45;;;;;;;35.35;6.70;;;6.10;99.90;;;;;;7376273;19;20018;-68
2023/02/04 06:47:11;;;;;;;39.20;7.60;;;6.10;99.90;;;;;;7377978;19;20027;-71
2023/02/04 06:49:38;;;;;;;36.15;6.50;;;6.10;99.90;;;;;;7377301;19;20014;-70
2023/02/04 06:52:04;;;;;;;44.72;7.20;;;6.10;99.90;;;;;;7372104;19;20082;-69
2023/02/04 06:54:34;;;;;;;33.53;6.65;;;6.10;99.90;;;;;;7376610;19;20074;-69
2023/02/04 06:57:05;;;;;;;30.45;5.43;;;6.10;99.90;;;;;;7377859;19;20022;-69
2023/02/04 06:59:36;;;;;;;37.00;6.22;;;6.10;99.90;;;;;;7371519;19;20033;-61
2023/02/04 07:02:06;;;;;;;36.65;6.07;;;6.00;99.90;;;;;;7367205;19;20575;-61
2023/02/04 07:04:34;;;;;;;44.13;6.93;;;6.10;99.90;;;;;;7371951;19;20026;-62
2023/02/04 07:07:00;;;;;;;40.90;6.82;;;6.00;99.90;;;;;;7369354;19;20043;-62
2023/02/04 07:09:39;;;;;;;29.83;5.78;;;6.00;99.90;;;;;;7370946;19;20025;-62
2023/02/04 07:12:06;;;;;;;28.92;5.60;;;6.00;99.90;;;;;;7367940;19;20047;-63
2023/02/04 07:14:33;;;;;;;22.95;6.00;;;6.00;99.90;;;;;;7367581;19;20025;-62
2023/02/04 07:16:59;;;;;;;26.08;5.82;;;5.90;99.90;;;;;;7368353;19;20023;-62
2023/02/04 07:19:25;;;;;;;23.77;6.05;;;5.90;99.90;;;;;;7368457;19;20026;-62
2023/02/04 07:21:55;;;;;;;35.58;5.35;;;5.90;99.90;;;;;;7369347;19;20356;-63
2023/02/04 07:24:22;;;;;;;24.15;5.20;;;5.90;99.90;;;;;;7369158;19;20027;-61
2023/02/04 07:26:49;;;;;;;31.88;5.53;;;5.90;99.90;;;;;;7371274;19;20086;-62
2023/02/04 07:29:17;;;;;;;27.55;5.75;;;5.90;99.90;;;;;;7368880;19;20031;-62
2023/02/04 07:31:55;;;;;;;25.80;4.57;;;5.80;99.90;;;;;;7369129;19;20026;-62
2023/02/04 07:34:21;;;;;;;23.73;5.68;;;5.80;99.90;;;;;;7370546;19;20767;-63
2023/02/04 07:36:48;;;;;;;23.90;4.88;;;5.80;99.90;;;;;;7372155;19;20385;-62
2023/02/04 07:39:15;;;;;;;31.60;5.63;;;5.80;99.90;;;;;;7370788;19;20485;-63
2023/02/04 07:41:41;;;;;;;25.88;4.85;;;5.80;99.90;;;;;;7367956;19;20043;-62
2023/02/04 07:44:07;;;;;;;20.27;4.88;;;5.90;99.90;;;;;;7367645;19;20395;-63
2023/02/04 07:46:33;;;;;;;30.30;4.43;;;5.90;99.90;;;;;;7367927;19;20101;-63
2023/02/04 07:49:02;;;;;;;26.25;6.00;;;5.90;99.90;;;;;;7371563;19;20010;-63
2023/02/04 07:51:29;;;;;;;48.55;23.45;;;6.00;99.90;;;;;;7369013;19;20018;-57
2023/02/04 07:53:56;;;;;;;47.05;24.38;;;6.00;99.90;;;;;;7369344;19;20022;-58
2023/02/04 07:56:22;;;;;;;28.88;6.80;;;6.30;99.90;;;;;;7368737;19;20026;-58
2023/02/04 07:58:48;;;;;;;31.98;7.93;;;6.40;99.90;;;;;;7369419;19;20047;-59
2023/02/04 08:01:15;;;;;;;24.00;7.38;;;6.50;99.90;;;;;;7366017;19;20102;-59
2023/02/04 08:03:42;;;;;;;24.35;4.53;;;6.60;99.90;;;;;;7368406;19;20011;-58
2023/02/04 08:06:08;;;;;;;20.38;5.25;;;6.60;99.90;;;;;;7371001;19;20022;-59
2023/02/04 08:08:35;;;;;;;27.48;5.13;;;6.60;99.90;;;;;;7372180;19;20027;-59
2023/02/04 08:11:01;;;;;;;29.13;5.18;;;6.70;99.90;;;;;;7366490;19;20111;-58
2023/02/04 08:13:28;;;;;;;29.25;5.47;;;6.80;99.90;;;;;;7372128;19;20107;-59
2023/02/04 08:15:56;;;;;;;21.50;4.47;;;6.80;99.90;;;;;;7365192;19;20022;-58
2023/02/04 08:18:23;;;;;;;21.67;4.53;;;6.90;99.90;;;;;;7367995;19;20026;-58
2023/02/04 08:20:53;;;;;;;23.38;3.78;;;6.90;99.90;;;;;;7369317;19;20018;-58
2023/02/04 08:23:22;;;;;;;17.30;3.63;;;7.00;99.90;;;;;;7368043;19;20499;-58
2023/02/04 08:25:48;;;;;;;19.67;4.18;;;7.00;99.90;;;;;;7368592;19;20776;-58
2023/02/04 08:28:15;;;;;;;20.25;5.15;;;7.10;99.90;;;;;;7369008;19;20033;-58
2023/02/04 08:30:41;;;;;;;17.55;3.47;;;7.20;99.90;;;;;;7368683;19;20037;-61
2023/02/04 08:33:08;;;;;;;24.80;4.75;;;7.20;99.90;;;;;;7368043;19;20015;-59
2023/02/04 08:35:34;;;;;;;17.35;4.00;;;7.20;99.90;;;;;;7369202;19;20985;-58
2023/02/04 08:38:01;;;;;;;19.80;3.63;;;7.40;99.90;;;;;;7366268;19;20624;-58
2023/02/04 08:40:28;;;;;;;17.73;3.40;;;7.50;99.90;;;;;;7368543;19;20049;-59
2023/02/04 08:42:54;;;;;;;17.45;3.72;;;7.60;99.90;;;;;;7368415;19;20053;-57
2023/02/04 08:45:31;;;;;;;24.20;3.70;;;7.60;99.90;;;;;;7366345;19;20030;-58
2023/02/04 08:48:02;;;;;;;14.32;3.63;;;7.60;99.90;;;;;;7366522;19;20011;-57
2023/02/04 08:50:29;;;;;;;19.15;3.85;;;7.70;99.90;;;;;;7370108;19;20031;-58
2023/02/04 08:52:56;;;;;;;15.68;4.13;;;7.80;99.90;;;;;;7369561;19;20782;-57
2023/02/04 08:55:22;;;;;;;53.08;34.20;;;7.90;99.90;;;;;;7368060;19;20015;-58
2023/02/04 08:57:48;;;;;;;162.32;122.18;;;8.00;99.90;;;;;;7367916;19;20786;-59
2023/02/04 09:00:15;;;;;;;45.05;28.30;;;7.90;99.90;;;;;;7368359;19;20019;-58
2023/02/04 09:02:44;;;;;;;20.50;6.63;;;7.80;99.90;;;;;;7371903;19;20591;-57
2023/02/04 09:05:11;;;;;;;21.98;8.75;;;7.80;99.90;;;;;;7372664;19;20047;-57
2023/02/04 09:07:39;;;;;;;26.52;12.73;;;8.00;99.90;;;;;;7368572;19;20039;-57
2023/02/04 09:10:07;;;;;;;13.23;4.05;;;8.10;99.90;;;;;;7372161;19;20018;-58
2023/02/04 09:12:34;;;;;;;17.10;6.47;;;8.00;99.90;;;;;;7370256;19;20021;-58
2023/02/04 09:15:00;;;;;;;15.40;4.38;;;8.00;99.90;;;;;;7375094;19;20019;-58
2023/02/04 09:17:26;;;;;;;15.85;4.00;;;7.90;99.90;;;;;;7375404;19;20018;-59
2023/02/04 09:19:53;;;;;;;10.52;2.50;;;7.90;99.90;;;;;;7371248;19;20117;-58
2023/02/04 09:22:19;;;;;;;16.33;3.00;;;7.90;99.90;;;;;;7373394;19;20121;-59
2023/02/04 09:24:46;;;;;;;14.43;4.30;;;7.90;99.90;;;;;;7376192;19;20018;-57
2023/02/04 09:27:13;;;;;;;34.78;19.10;;;8.10;99.90;;;;;;7371426;19;20893;-59
2023/02/04 09:29:39;;;;;;;17.95;8.55;;;8.20;99.90;;;;;;7374546;19;20088;-59
2023/02/04 09:32:08;;;;;;;17.00;4.65;;;8.20;99.90;;;;;;7373882;19;20027;-58
2023/02/04 09:34:34;;;;;;;10.32;2.92;;;8.20;99.90;;;;;;7375528;19;20026;-59
2023/02/04 09:37:01;;;;;;;12.05;2.72;;;8.10;99.90;;;;;;7370984;19;20018;-59
2023/02/04 09:39:27;;;;;;;15.23;3.78;;;8.10;99.90;;;;;;7373522;19;20018;-59
2023/02/04 09:42:01;;;;;;;9.23;3.55;;;8.10;99.90;;;;;;7372346;19;20009;-58
2023/02/04 09:44:30;;;;;;;31.23;19.10;;;8.10;99.90;;;;;;7373077;19;20019;-59
2023/02/04 09:46:58;;;;;;;63.13;44.75;;;8.20;99.90;;;;;;7376000;19;20018;-58
2023/02/04 09:49:31;;;;;;;29.35;18.25;;;8.40;99.90;;;;;;7369645;19;20025;-61
2023/02/04 09:52:00;;;;;;;11.30;3.40;;;8.50;99.90;;;;;;7372503;19;20786;-58
2023/02/04 09:54:27;;;;;;;11.05;3.58;;;8.50;99.90;;;;;;7372935;19;20576;-59
2023/02/04 09:56:58;;;;;;;11.48;3.85;;;8.50;99.90;;;;;;7373514;19;20022;-60
2023/02/04 09:59:27;;;;;;;10.40;2.70;;;8.50;99.90;;;;;;7368204;19;20026;-59
2023/02/04 10:01:56;;;;;;;12.13;2.80;;;8.60;99.90;;;;;;7375177;19;20031;-58
2023/02/04 10:04:23;;;;;;;13.50;3.17;;;8.60;99.90;;;;;;7369238;19;20027;-58
2023/02/04 10:07:00;;;;;;;13.55;3.10;;;8.50;99.90;;;;;;7374858;19;20022;-64
2023/02/04 10:09:27;;;;;;;8.23;2.85;;;8.40;99.90;;;;;;7373190;19;20022;-64
2023/02/04 10:11:53;;;;;;;9.95;3.13;;;8.60;99.90;;;;;;7372804;19;20422;-66
2023/02/04 10:14:22;;;;;;;9.73;3.00;;;8.90;99.90;;;;;;7370657;19;20014;-67
2023/02/04 10:17:00;;;;;;;13.57;2.95;;;9.20;99.90;;;;;;7376856;19;20452;-68
2023/02/04 10:19:29;;;;;;;12.57;2.70;;;9.60;99.90;;;;;;7373398;19;20377;-70
2023/02/04 10:21:56;;;;;;;12.13;2.83;;;10.00;99.90;;;;;;7374445;19;20027;-68
2023/02/04 10:24:33;;;;;;;8.05;2.22;;;10.50;99.90;;;;;;7372447;19;20041;-69
2023/02/04 10:27:08;;;;;;;13.60;4.05;;;11.00;99.90;;;;;;7371827;19;20018;-67
2023/02/04 10:29:35;;;;;;;8.85;1.90;;;11.60;99.90;;;;;;7370976;19;20014;-68
2023/02/04 10:32:02;;;;;;;10.45;2.90;;;11.20;99.90;;;;;;7374098;19;20019;-68
2023/02/04 10:34:38;;;;;;;12.25;3.30;;;11.70;99.90;;;;;;7371518;19;20069;-68
2023/02/04 10:37:21;;;;;;;10.23;2.45;;;12.60;99.90;;;;;;7372138;19;20022;-65
2023/02/04 10:39:48;;;;;;;12.73;6.65;;;13.40;99.90;;;;;;7372683;19;20048;-66
2023/02/04 10:42:20;;;;;;;8.82;2.42;;;13.80;99.90;;;;;;7373117;19;20866;-66
2023/02/04 10:44:47;;;;;;;11.38;3.60;;;14.50;99.90;;;;;;7371627;19;20015;-68
2023/02/04 10:47:29;;;;;;;11.00;2.72;;;14.90;99.90;;;;;;7372342;19;20025;-69
2023/02/04 10:50:05;;;;;;;20.45;13.63;;;15.30;99.90;;;;;;7374514;19;20018;-69
2023/02/04 10:52:42;;;;;;;19.35;10.70;;;16.00;99.90;;;;;;7370289;19;20485;-68
2023/02/04 10:55:20;;;;;;;14.10;7.38;;;15.90;99.90;;;;;;7371406;19;20011;-66
2023/02/04 10:57:49;;;;;;;12.75;5.70;;;16.40;99.90;;;;;;7365135;19;20962;-66
2023/02/04 11:00:22;;;;;;;12.70;6.07;;;16.10;99.90;;;;;;7369996;19;20022;-70
2023/02/04 11:03:02;;;;;;;10.32;2.38;;;16.00;99.90;;;;;;7369213;19;20014;-70
2023/02/04 11:05:34;;;;;;;11.27;4.72;;;16.20;99.90;;;;;;7373118;19;20751;-70
2023/02/04 11:08:20;;;;;;;7.60;2.13;;;15.30;99.90;;;;;;7369832;19;20054;-66
2023/02/04 11:10:51;;;;;;;7.63;2.83;;;15.50;96.80;;;;;;7373583;19;20358;-66
2023/02/04 11:13:26;;;;;;;5.63;1.55;;;15.10;99.90;;;;;;7368896;19;20025;-66
2023/02/04 11:16:16;;;;;;;7.40;2.22;;;14.70;99.90;;;;;;7369182;19;20904;-66
2023/02/04 11:19:05;;;;;;;7.70;2.08;;;14.10;99.90;;;;;;7371014;19;20031;-66
2023/02/04 11:21:32;;;;;;;7.82;2.58;;;14.00;99.90;;;;;;7365722;19;20476;-65
2023/02/04 11:24:10;;;;;;;13.05;3.58;;;14.60;99.90;;;;;;7368646;19;20018;-69
2023/02/04 11:26:49;;;;;;;11.95;7.40;;;14.80;99.90;;;;;;7369574;19;20022;-58
2023/02/04 11:29:15;;;;;;;;;;;15.40;99.90;;;;;;7368938;19;20327;-58
2023/02/04 11:31:56;;;;;;;6.95;2.90;;;15.90;97.80;;;;;;7371155;19;20427;-59
2023/02/04 11:34:27;;;;;;;7.70;3.72;;;16.00;91.90;;;;;;7369861;19;20051;-60
2023/02/04 11:37:10;;;;;;;12.00;5.20;;;15.60;99.90;;;;;;7368703;19;20086;-60
2023/02/04 11:39:49;;;;;;;6.28;3.00;;;15.70;96.10;;;;;;7368398;19;20522;-61
2023/02/04 11:42:25;;;;;;;7.72;2.50;;;15.00;93.60;;;;;;7365455;19;20015;-61
2023/02/04 11:45:11;;;;;;;13.55;7.60;;;15.50;99.90;;;;;;7371590;19;20389;-62
2023/02/04 11:47:38;;;;;;;10.07;3.83;;;15.30;99.90;;;;;;7366934;19;20041;-62
2023/02/04 11:50:19;;;;;;;10.30;2.60;;;15.00;99.90;;;;;;7372453;19;20018;-62
2023/02/04 11:52:45;;;;;;;6.22;2.40;;;14.40;92.90;;;;;;7371643;19;20596;-62
2023/02/04 11:55:12;;;;;;;10.35;2.70;;;15.20;99.90;;;;;;7367934;19;20026;-61
2023/02/04 11:57:41;;;;;;;6.63;1.90;;;15.80;96.10;;;;;;7365923;19;20015;-62
2023/02/04 12:00:26;;;;;;;6.25;1.92;;;16.10;96.30;;;;;;7367656;19;20806;-61
2023/02/04 12:03:01;;;;;;;6.60;2.30;;;15.60;74.30;;;;;;7371582;19;20669;-62
2023/02/04 12:05:41;;;;;;;5.65;2.40;;;16.40;80.80;;;;;;7373661;19;20075;-64
2023/02/04 12:08:12;;;;;;;5.78;1.55;;;17.00;69.60;;;;;;7370895;19;20037;-61
2023/02/04 12:10:46;;;;;;;9.80;1.95;;;17.00;66.80;;;;;;7370942;19;20486;-61
2023/02/04 12:13:22;;;;;;;5.78;1.20;;;17.60;65.00;;;;;;7370651;19;20022;-61
2023/02/04 12:16:05;;;;;;;6.57;1.50;;;18.10;65.30;;;;;;7367702;19;20019;-63
2023/02/04 12:18:34;;;;;;;5.45;1.60;;;18.40;59.80;;;;;;7368506;19;20039;-61
2023/02/04 12:21:01;;;;;;;36.13;28.38;;;17.90;60.30;;;;;;7364848;19;20023;-62
2023/02/04 12:23:29;;;;;;;15.95;10.02;;;17.70;59.10;;;;;;7369877;19;20049;-61
2023/02/04 12:25:55;;;;;;;7.30;3.55;;;17.90;58.80;;;;;;7370685;19;20037;-61
2023/02/04 12:28:23;;;;;;;10.02;3.70;;;18.70;60.10;;;;;;7372484;19;20022;-62
2023/02/04 12:30:49;;;;;;;5.47;1.92;;;18.40;58.80;;;;;;7372346;19;20047;-62
2023/02/04 12:33:16;;;;;;;5.63;2.60;;;18.10;58.40;;;;;;7373363;19;20521;-62
2023/02/04 12:35:42;;;;;;;6.95;2.85;;;18.40;60.00;;;;;;7377787;19;20330;-61
2023/02/04 12:38:18;;;;;;;7.28;2.20;;;18.00;59.40;;;;;;7374893;19;20024;-65
2023/02/04 12:40:45;;;;;;;6.72;2.50;;;17.90;58.80;;;;;;7378007;19;20042;-61
2023/02/04 12:43:15;;;;;;;5.53;1.40;;;18.50;59.20;;;;;;7369417;19;20575;-65
2023/02/04 12:45:45;;;;;;;7.22;1.85;;;18.40;59.40;;;;;;7374002;19;20046;-62
2023/02/04 12:48:12;;;;;;;5.13;1.65;;;19.10;57.40;;;;;;7375279;19;20053;-61
2023/02/04 12:50:38;;;;;;;6.90;1.30;;;18.90;56.90;;;;;;7380019;19;20042;-62
2023/02/04 12:53:05;;;;;;;4.03;1.92;;;18.30;57.20;;;;;;7379295;19;20022;-61